Terminal Aerodrome Forecast
Issued by NWS

Home | Current Version | Previous Version | Text Only | Print | Product List | Glossary On
Versions: 1 2 3 4 5 6 7 8 9 10 11 12 13 14 15 16 17 18 19 20 21 22 23 24 25 26 27 28 29 30 31 32 33 34 35 36 37
000
FTUS45 KSLC 250308 AAA
TAFEVW
TAF AMD
KEVW 250308Z 2503/2524 22015G28KT 3SM -SN BKN020 BKN030
     FM251200 26018KT 1/2SM SN FZFG BKN005 OVC010
     FM251400 27015G25KT 2SM -SN SCT005 BKN015=

USA.gov is the U.S. government's official web portal to all federal, state and local government web resources and services.